Floyd Bennett Memorial Airport Glens Falls US
ICAO: KGFL
IATA: GFL
Category: Medium
Scheduled Services: No

Elevation: 328 ft
TransAlt. 18000 ft.

Airport Communications:
ALBANY APP/DEP:125
ASOS:119.25
BURLINGTON RDO:122.2
CTAF/UNICOM:123

KGFL Zoom In..

If you have problems with the map follow the link
https://www.worldairports.se/pages/airport.php?
ICAO=KGFL

Runways:

(A) RW 01 length 5000 ft width 150 ft
ILS 110.70 / hdg 12

(B) RW 12 length 3999 ft width 100 ft
---- / hdg 124

(C) RW 19 length 5000 ft width 150 ft
---- / hdg 192

(D) RW 30 length 3999 ft width 100 ft
---- / hdg 304

Location; KGFL
Day. 27 / Time. 00.22 Zulu
* Altimeter: 29.67
* Temperature: 02° c. 35.6°f.
* Wind from: 180° Speed 07 kn.
Dewpoint: -01° c.
Visibility: 10 Statute Miles.
Clouds: Scattered 2100 ft.
Clouds: Broken 2600 ft.
Clouds: Overcast 3600 ft.

KGFL 270022Z AUTO 18007KT 10SM SCT021 BKN026 OVC036 02/M01 A2967 RMK AO2 T00171006


Wind From 180°
Speed 07 kn.

 
 
jpsmedia worldairports.se 2020   terms of use